| time (UTC) | temp F | wind direction | speed MPH | gust MPH | rain 1hr in | rain 24hr in | rain mn in | humidity % | barometer mb |
| 20260502170156 | 61 | 8 | 3.0 | 3.0 | 0.00 | 0.00 | 0.00 | 43 | 1020.5 |
| 20260502164142 | 59 | 290 | 2.0 | 3.0 | 0.00 | 0.00 | 0.00 | 44 | 1020.7 |
| 20260502163638 | 58 | 14 | 4.0 | 5.0 | 0.00 | 0.00 | 0.00 | 46 | 1020.7 |
| 20260502163135 | 57 | 286 | 3.0 | 3.0 | 0.00 | 0.00 | 0.00 | 46 | 1020.7 |
| 20260502162632 | 57 | 334 | 4.0 | 6.0 | 0.00 | 0.00 | 0.00 | 48 | 1020.7 |
| 20260502162129 | 56 | 298 | 5.0 | 6.0 | 0.00 | 0.00 | 0.00 | 49 | 1020.8 |
| 20260502161626 | 56 | 31 | 4.0 | 5.0 | 0.00 | 0.00 | 0.00 | 47 | 1020.8 |
| 20260502161123 | 55 | 24 | 3.0 | 5.0 | 0.00 | 0.00 | 0.00 | 49 | 1020.8 |
| 20260502160621 | 54 | 331 | 3.0 | 3.0 | 0.00 | 0.00 | 0.00 | 51 | 1020.7 |
| 20260502160120 | 55 | 343 | 5.0 | 8.0 | 0.00 | 0.00 | 0.00 | 50 | 1020.5 |
| 20260502152034 | 50 | 299 | 5.0 | 6.0 | 0.00 | 0.00 | 0.00 | 58 | 1020.7 |
| 20260502151531 | 49 | 318 | 5.0 | 7.0 | 0.00 | 0.00 | 0.00 | 60 | 1020.8 |
| 20260502151028 | 49 | 289 | 5.0 | 6.0 | 0.00 | 0.00 | 0.00 | 60 | 1021.1 |
| 20260502150526 | 48 | 288 | 4.0 | 6.0 | 0.00 | 0.00 | 0.00 | 61 | 1020.7 |
| 20260502130410 | 34 | 247 | 0.0 | 0.0 | 0.00 | 0.00 | 0.00 | 84 | 1020.5 |
| 20260502123353 | 30 | 268 | 0.0 | 0.0 | 0.00 | 0.00 | 0.00 | 89 | 1020.6 |
| 20260502122850 | 31 | 259 | 0.0 | 0.0 | 0.00 | 0.00 | 0.00 | 88 | 1020.5 |
| 20260502122345 | 31 | 259 | 0.0 | 0.0 | 0.00 | 0.00 | 0.00 | 88 | 1020.7 |
| 20260502121845 | 31 | 251 | 0.0 | 0.0 | 0.00 | 0.00 | 0.00 | 87 | 1020.5 |
| 20260502121341 | 32 | 250 | 0.0 | 0.0 | 0.00 | 0.00 | 0.00 | 87 | 1020.5 |
| 20260502120839 | 32 | 242 | 0.0 | 0.0 | 0.00 | 0.00 | 0.00 | 88 | 1020.5 |
| 20260502120335 | 32 | 242 | 0.0 | 0.0 | 0.00 | 0.00 | 0.00 | 87 | 1020.6 |
| 20260502115832 | 32 | 242 | 0.0 | 0.0 | 0.00 | 0.00 | 0.00 | 87 | 1020.4 |
| 20260502115329 | 32 | 242 | 0.0 | 0.0 | 0.00 | 0.00 | 0.00 | 87 | 1020.7 |
| 20260502114826 | 32 | 242 | 0.0 | 0.0 | 0.00 | 0.00 | 0.00 | 87 | 1020.8 |
| 20260502114323 | 32 | 242 | 0.0 | 0.0 | 0.00 | 0.00 | 0.00 | 86 | 1020.8 |
| 20260502113820 | 32 | 243 | 0.0 | 0.0 | 0.00 | 0.00 | 0.00 | 87 | 1020.7 |
| 20260502113317 | 32 | 244 | 0.0 | 0.0 | 0.00 | 0.00 | 0.00 | 87 | 1020.8 |
| 20260502112816 | 32 | 244 | 0.0 | 0.0 | 0.00 | 0.00 | 0.00 | 87 | 1020.8 |
| 20260502112312 | 32 | 244 | 0.0 | 0.0 | 0.00 | 0.00 | 0.00 | 86 | 1020.6 |
| 20260502111810 | 32 | 244 | 0.0 | 0.0 | 0.00 | 0.00 | 0.00 | 86 | 1020.7 |
| 20260502111307 | 32 | 244 | 0.0 | 0.0 | 0.00 | 0.00 | 0.00 | 86 | 1020.7 |
| 20260502110805 | 32 | 245 | 0.0 | 0.0 | 0.00 | 0.00 | 0.00 | 87 | 1020.7 |
| 20260502110302 | 32 | 245 | 0.0 | 0.0 | 0.00 | 0.00 | 0.00 | 86 | 1020.6 |
| 20260502105800 | 32 | 245 | 0.0 | 0.0 | 0.00 | 0.00 | 0.00 | 86 | 1020.7 |
| 20260502105256 | 33 | 245 | 0.0 | 0.0 | 0.00 | 0.00 | 0.00 | 86 | 1021.0 |
| 20260502104754 | 33 | 245 | 0.0 | 0.0 | 0.00 | 0.00 | 0.00 | 85 | 1020.8 |
| 20260502104251 | 32 | 245 | 0.0 | 0.0 | 0.00 | 0.00 | 0.00 | 86 | 1020.7 |
| 20260502103749 | 32 | 245 | 0.0 | 0.0 | 0.00 | 0.00 | 0.00 | 85 | 1021.2 |
| 20260502103246 | 32 | 245 | 0.0 | 0.0 | 0.00 | 0.00 | 0.00 | 85 | 1020.8 |
| 20260502102743 | 32 | 245 | 0.0 | 0.0 | 0.00 | 0.00 | 0.00 | 85 | 1020.7 |
| 20260502102239 | 33 | 245 | 0.0 | 0.0 | 0.00 | 0.00 | 0.00 | 85 | 1020.5 |
| 20260502101738 | 33 | 245 | 0.0 | 0.0 | 0.00 | 0.00 | 0.00 | 85 | 1020.7 |
| 20260502101235 | 32 | 245 | 0.0 | 0.0 | 0.00 | 0.00 | 0.00 | 85 | 1020.5 |
| 20260502100733 | 31 | 245 | 0.0 | 0.0 | 0.00 | 0.00 | 0.00 | 83 | 1020.7 |
| 20260502100232 | 32 | 245 | 0.0 | 0.0 | 0.00 | 0.00 | 0.00 | 83 | 1020.6 |
| 20260502091206 | 36 | 193 | 0.0 | 0.0 | 0.00 | 0.00 | 0.00 | 77 | 1020.3 |
| 20260502090703 | 35 | 217 | 0.0 | 0.0 | 0.00 | 0.00 | 0.00 | 75 | 1020.4 |
| 20260502090200 | 35 | 216 | 0.0 | 0.0 | 0.00 | 0.00 | 0.00 | 76 | 1020.5 |
| 20260502071055 | 38 | 190 | 0.0 | 0.0 | 0.00 | 0.00 | 0.00 | 71 | 1020.3 |
| 20260502070553 | 37 | 231 | 0.0 | 0.0 | 0.00 | 0.00 | 0.00 | 72 | 1020.0 |
| 20260502070051 | 37 | 231 | 0.0 | 0.0 | 0.00 | 0.00 | 0.00 | 71 | 1020.2 |
| 20260502065549 | 37 | 232 | 0.0 | 0.0 | 0.00 | 0.00 | 0.00 | 72 | 1020.2 |
| 20260502065047 | 37 | 232 | 0.0 | 0.0 | 0.00 | 0.00 | 0.00 | 72 | 1020.2 |
| 20260502064545 | 37 | 231 | 0.0 | 0.0 | 0.00 | 0.00 | 0.00 | 71 | 1020.3 |
| 20260502064042 | 38 | 231 | 0.0 | 0.0 | 0.00 | 0.00 | 0.00 | 67 | 1019.9 |
| 20260502063540 | 38 | 231 | 0.0 | 0.0 | 0.00 | 0.00 | 0.00 | 66 | 1019.9 |
| 20260502063037 | 39 | 231 | 0.0 | 0.0 | 0.00 | 0.00 | 0.00 | 65 | 1020.0 |
| 20260502062534 | 39 | 231 | 0.0 | 0.0 | 0.00 | 0.00 | 0.00 | 68 | 1020.2 |
| 20260502062032 | 38 | 263 | 0.0 | 0.0 | 0.00 | 0.00 | 0.00 | 70 | 1019.8 |
| 20260502061530 | 38 | 263 | 0.0 | 0.0 | 0.00 | 0.00 | 0.00 | 71 | 1019.9 |
| 20260502061027 | 38 | 263 | 0.0 | 0.0 | 0.00 | 0.00 | 0.00 | 72 | 1019.9 |
| 20260502060522 | 39 | 266 | 0.0 | 0.0 | 0.00 | 0.00 | 0.00 | 72 | 1019.7 |
| 20260502060019 | 39 | 260 | 0.0 | 0.0 | 0.00 | 0.00 | 0.00 | 72 | 1020.2 |
| 20260502055516 | 39 | 260 | 0.0 | 0.0 | 0.00 | 0.00 | 0.00 | 71 | 1019.9 |
| 20260502055015 | 38 | 260 | 0.0 | 0.0 | 0.00 | 0.00 | 0.00 | 73 | 1019.9 |
| 20260502054513 | 38 | 259 | 0.0 | 0.0 | 0.00 | 0.00 | 0.00 | 72 | 1019.8 |
| 20260502054010 | 38 | 260 | 0.0 | 0.0 | 0.00 | 0.00 | 0.00 | 71 | 1019.7 |
| 20260502053507 | 39 | 261 | 0.0 | 0.0 | 0.00 | 0.00 | 0.00 | 71 | 1019.7 |
| 20260502053005 | 38 | 256 | 0.0 | 0.0 | 0.00 | 0.00 | 0.00 | 72 | 1019.9 |
| 20260502052503 | 39 | 256 | 0.0 | 0.0 | 0.00 | 0.00 | 0.00 | 72 | 1019.9 |
| 20260502052001 | 39 | 256 | 0.0 | 0.0 | 0.00 | 0.00 | 0.00 | 71 | 1019.8 |
| 20260502051459 | 39 | 256 | 0.0 | 0.0 | 0.00 | 0.00 | 0.00 | 71 | 1019.9 |
| 20260502050955 | 39 | 257 | 1.0 | 1.0 | 0.00 | 0.00 | 0.00 | 70 | 1019.9 |
| 20260502050452 | 39 | 256 | 0.0 | 0.0 | 0.00 | 0.00 | 0.00 | 72 | 1019.8 |
| 20260502045949 | 39 | 256 | 0.0 | 0.0 | 0.00 | 0.00 | 0.00 | 71 | 1019.9 |
| 20260502045446 | 39 | 256 | 0.0 | 0.0 | 0.00 | 0.00 | 0.00 | 71 | 1019.9 |
| 20260502044943 | 40 | 256 | 0.0 | 0.0 | 0.00 | 0.00 | 0.00 | 71 | 1019.7 |
| 20260502044438 | 40 | 256 | 0.0 | 0.0 | 0.00 | 0.00 | 0.00 | 69 | 1019.9 |
| 20260502043936 | 41 | 251 | 0.0 | 0.0 | 0.00 | 0.00 | 0.00 | 67 | 1019.9 |
| 20260502043434 | 42 | 237 | 0.0 | 0.0 | 0.00 | 0.00 | 0.00 | 64 | 1019.9 |
| 20260502042933 | 42 | 220 | 0.0 | 0.0 | 0.00 | 0.00 | 0.00 | 63 | 1019.8 |
| 20260502042430 | 43 | 219 | 0.0 | 0.0 | 0.00 | 0.00 | 0.00 | 62 | 1019.7 |
| 20260502041927 | 44 | 216 | 0.0 | 0.0 | 0.00 | 0.00 | 0.00 | 59 | 1019.9 |
| 20260502041425 | 43 | 220 | 0.0 | 0.0 | 0.00 | 0.00 | 0.00 | 61 | 1019.7 |
| 20260502040922 | 43 | 227 | 0.0 | 0.0 | 0.00 | 0.00 | 0.00 | 62 | 1019.7 |
| 20260502040418 | 44 | 235 | 0.0 | 0.0 | 0.00 | 0.00 | 0.00 | 60 | 1019.9 |
| 20260502035915 | 45 | 235 | 0.0 | 0.0 | 0.00 | 0.00 | 0.00 | 58 | 1019.6 |
| 20260502035411 | 45 | 236 | 0.0 | 0.0 | 0.00 | 0.00 | 0.00 | 54 | 1019.7 |
| 20260502034909 | 46 | 220 | 4.0 | 6.0 | 0.00 | 0.00 | 0.00 | 58 | 1019.7 |
| 20260502034408 | 46 | 231 | 0.0 | 0.0 | 0.00 | 0.00 | 0.00 | 61 | 1019.3 |
| 20260502033906 | 47 | 231 | 0.0 | 0.0 | 0.00 | 0.00 | 0.00 | 62 | 1019.5 |
| 20260502033403 | 48 | 231 | 0.0 | 0.0 | 0.00 | 0.00 | 0.00 | 61 | 1019.7 |
| 20260502032859 | 50 | 231 | 0.0 | 0.0 | 0.00 | 0.00 | 0.00 | 56 | 1019.7 |
| 20260502032355 | 51 | 208 | 0.0 | 0.0 | 0.00 | 0.00 | 0.00 | 45 | 1019.3 |
| 20260502031853 | 54 | 231 | 0.0 | 0.0 | 0.00 | 0.00 | 0.00 | 42 | 1019.3 |
| 20260502031351 | 55 | 231 | 0.0 | 0.0 | 0.00 | 0.00 | 0.00 | 36 | 1019.3 |
| 20260502030849 | 55 | 231 | 0.0 | 0.0 | 0.00 | 0.00 | 0.00 | 35 | 1019.1 |
| 20260502030347 | 56 | 233 | 0.0 | 0.0 | 0.00 | 0.00 | 0.00 | 35 | 1019.1 |
| 20260502025844 | 56 | 233 | 0.0 | 0.0 | 0.00 | 0.00 | 0.00 | 33 | 1019.1 |
| 20260502025342 | 55 | 233 | 0.0 | 0.0 | 0.00 | 0.00 | 0.00 | 34 | 1019.0 |
| 20260502024839 | 55 | 235 | 0.0 | 0.0 | 0.00 | 0.00 | 0.00 | 35 | 1019.1 |
| 20260502024337 | 55 | 235 | 0.0 | 0.0 | 0.00 | 0.00 | 0.00 | 36 | 1019.0 |
| 20260502023835 | 56 | 235 | 0.0 | 0.0 | 0.00 | 0.00 | 0.00 | 36 | 1019.0 |
| 20260502023332 | 56 | 235 | 0.0 | 0.0 | 0.00 | 0.00 | 0.00 | 35 | 1018.7 |
| 20260502022830 | 57 | 235 | 0.0 | 0.0 | 0.00 | 0.00 | 0.00 | 35 | 1018.9 |
| 20260502022326 | 58 | 235 | 0.0 | 0.0 | 0.00 | 0.00 | 0.00 | 34 | 1019.0 |
| 20260502021823 | 59 | 235 | 0.0 | 0.0 | 0.00 | 0.00 | 0.00 | 31 | 1018.8 |
| 20260502021320 | 59 | 235 | 0.0 | 0.0 | 0.00 | 0.00 | 0.00 | 32 | 1018.7 |
| 20260502020818 | 60 | 236 | 0.0 | 0.0 | 0.00 | 0.00 | 0.00 | 31 | 1018.8 |
| 20260502020315 | 60 | 236 | 0.0 | 0.0 | 0.00 | 0.00 | 0.00 | 30 | 1018.9 |
| 20260502015812 | 61 | 248 | 0.0 | 0.0 | 0.00 | 0.00 | 0.00 | 29 | 1018.9 |
| 20260502015309 | 61 | 248 | 0.0 | 0.0 | 0.00 | 0.00 | 0.00 | 27 | 1019.1 |
| 20260502014806 | 62 | 248 | 0.0 | 0.0 | 0.00 | 0.00 | 0.00 | 24 | 1019.0 |
| 20260502014303 | 62 | 248 | 0.0 | 0.0 | 0.00 | 0.00 | 0.00 | 23 | 1018.8 |
| 20260502013759 | 63 | 248 | 0.0 | 0.0 | 0.00 | 0.00 | 0.00 | 22 | 1018.9 |
| 20260502013255 | 64 | 259 | 0.0 | 0.0 | 0.00 | 0.00 | 0.00 | 20 | 1018.9 |
| 20260502012751 | 65 | 259 | 0.0 | 0.0 | 0.00 | 0.00 | 0.00 | 20 | 1018.9 |
| 20260502012249 | 65 | 260 | 0.0 | 0.0 | 0.00 | 0.00 | 0.00 | 19 | 1018.8 |
| 20260502011747 | 66 | 261 | 0.0 | 0.0 | 0.00 | 0.00 | 0.00 | 22 | 1019.1 |
| 20260502011242 | 66 | 263 | 0.0 | 0.0 | 0.00 | 0.00 | 0.00 | 22 | 1019.0 |
| 20260502010740 | 67 | 294 | 1.0 | 1.0 | 0.00 | 0.00 | 0.00 | 19 | 1019.1 |
| 20260502010236 | 67 | 273 | 0.0 | 0.0 | 0.00 | 0.00 | 0.00 | 20 | 1018.9 |
| 20260502005733 | 67 | 259 | 0.0 | 0.0 | 0.00 | 0.00 | 0.00 | 23 | 1019.0 |
| 20260502005231 | 67 | 276 | 0.0 | 0.0 | 0.00 | 0.00 | 0.00 | 21 | 1019.2 |
| 20260502004728 | 68 | 264 | 0.0 | 0.0 | 0.00 | 0.00 | 0.00 | 23 | 1019.3 |
| 20260502004224 | 66 | 270 | 0.0 | 0.0 | 0.00 | 0.00 | 0.00 | 23 | 1019.2 |
| 20260502003722 | 66 | 309 | 1.0 | 2.0 | 0.00 | 0.00 | 0.00 | 24 | 1019.2 |
| 20260502003219 | 67 | 316 | 1.0 | 2.0 | 0.00 | 0.00 | 0.00 | 25 | 1019.2 |
| 20260502002714 | 67 | 3 | 0.0 | 0.0 | 0.00 | 0.00 | 0.00 | 25 | 1019.2 |
| 20260502002213 | 66 | 271 | 0.0 | 0.0 | 0.00 | 0.00 | 0.00 | 24 | 1019.2 |
| 20260502001709 | 66 | 291 | 1.0 | 2.0 | 0.00 | 0.00 | 0.00 | 24 | 1019.1 |
| 20260502001208 | 66 | 290 | 2.0 | 2.0 | 0.00 | 0.00 | 0.00 | 27 | 1019.1 |
| 20260502000705 | 66 | 273 | 1.0 | 2.0 | 0.00 | 0.00 | 0.00 | 27 | 1019.1 |
| 20260502000204 | 66 | 268 | 1.0 | 1.0 | 0.00 | 0.00 | 0.00 | 28 | 1019.1 |
| 20260501235658 | 67 | 328 | 3.0 | 5.0 | 0.00 | 0.00 | 0.00 | 25 | 1019.2 |
| 20260501235154 | 66 | 255 | 0.0 | 0.0 | 0.00 | 0.00 | 0.00 | 26 | 1019.0 |
| 20260501234650 | 66 | 13 | 2.0 | 5.0 | 0.00 | 0.00 | 0.00 | 26 | 1019.2 |
| 20260501234147 | 66 | 285 | 2.0 | 2.0 | 0.00 | 0.00 | 0.00 | 25 | 1019.3 |
| 20260501233645 | 66 | 296 | 1.0 | 2.0 | 0.00 | 0.00 | 0.00 | 26 | 1019.3 |
| 20260501233142 | 66 | 297 | 3.0 | 5.0 | 0.00 | 0.00 | 0.00 | 27 | 1019.3 |
| 20260501232638 | 66 | 308 | 2.0 | 2.0 | 0.00 | 0.00 | 0.00 | 25 | 1019.3 |
| 20260501232136 | 66 | 270 | 2.0 | 2.0 | 0.00 | 0.00 | 0.00 | 25 | 1019.5 |
| 20260501231633 | 66 | 279 | 3.0 | 3.0 | 0.00 | 0.00 | 0.00 | 28 | 1019.3 |
| 20260501231131 | 67 | 317 | 3.0 | 5.0 | 0.00 | 0.00 | 0.00 | 25 | 1019.2 |
| 20260501230630 | 66 | 245 | 3.0 | 5.0 | 0.00 | 0.00 | 0.00 | 24 | 1019.6 |
| 20260501230128 | 66 | 304 | 2.0 | 2.0 | 0.00 | 0.00 | 0.00 | 24 | 1019.7 |
| 20260501225625 | 65 | 270 | 0.0 | 0.0 | 0.00 | 0.00 | 0.00 | 23 | 1019.6 |
| 20260501225121 | 65 | 283 | 2.0 | 3.0 | 0.00 | 0.00 | 0.00 | 23 | 1019.3 |
| 20260501224618 | 65 | 344 | 7.0 | 7.0 | 0.00 | 0.00 | 0.00 | 24 | 1019.6 |
| 20260501224115 | 65 | 296 | 5.0 | 6.0 | 0.00 | 0.00 | 0.00 | 23 | 1019.5 |
| 20260501223612 | 65 | 359 | 3.0 | 5.0 | 0.00 | 0.00 | 0.00 | 25 | 1019.9 |
| 20260501223108 | 66 | 283 | 2.0 | 3.0 | 0.00 | 0.00 | 0.00 | 25 | 1019.7 |
| 20260501222604 | 66 | 239 | 0.0 | 0.0 | 0.00 | 0.00 | 0.00 | 23 | 1019.7 |
| 20260501222101 | 65 | 306 | 0.0 | 0.0 | 0.00 | 0.00 | 0.00 | 25 | 1019.8 |
| 20260501221558 | 64 | 240 | 0.0 | 1.0 | 0.00 | 0.00 | 0.00 | 26 | 1019.7 |
| 20260501221055 | 66 | 312 | 7.0 | 10.0 | 0.00 | 0.00 | 0.00 | 27 | 1019.9 |
| 20260501220553 | 65 | 280 | 0.0 | 0.0 | 0.00 | 0.00 | 0.00 | 24 | 1020.0 |
| 20260501220050 | 65 | 290 | 0.0 | 0.0 | 0.00 | 0.00 | 0.00 | 23 | 1020.2 |
| 20260501215546 | 64 | 314 | 0.0 | 0.0 | 0.00 | 0.00 | 0.00 | 24 | 1020.3 |
| 20260501215041 | 65 | 326 | 7.0 | 8.0 | 0.00 | 0.00 | 0.00 | 26 | 1020.2 |
| 20260501214537 | 65 | 67 | 2.0 | 2.0 | 0.00 | 0.00 | 0.00 | 30 | 1020.3 |
| 20260501214033 | 65 | 267 | 4.0 | 5.0 | 0.00 | 0.00 | 0.00 | 26 | 1020.4 |
| 20260501213530 | 66 | 277 | 5.0 | 7.0 | 0.00 | 0.00 | 0.00 | 29 | 1020.3 |
| 20260501213026 | 65 | 295 | 1.0 | 1.0 | 0.00 | 0.00 | 0.00 | 28 | 1020.4 |
| 20260501212522 | 64 | 218 | 0.0 | 0.0 | 0.00 | 0.00 | 0.00 | 31 | 1020.6 |
| 20260501212020 | 65 | 271 | 2.0 | 3.0 | 0.00 | 0.00 | 0.00 | 30 | 1020.5 |
| 20260501211516 | 65 | 82 | 3.0 | 3.0 | 0.00 | 0.00 | 0.00 | 30 | 1020.5 |
| 20260501211015 | 64 | 3 | 4.0 | 5.0 | 0.00 | 0.00 | 0.00 | 30 | 1020.7 |
| 20260501210510 | 63 | 338 | 5.0 | 5.0 | 0.00 | 0.00 | 0.00 | 30 | 1020.7 |
| 20260501210007 | 63 | 311 | 0.0 | 1.0 | 0.00 | 0.00 | 0.00 | 31 | 1020.6 |
| 20260501205504 | 63 | 288 | 1.0 | 3.0 | 0.00 | 0.00 | 0.00 | 34 | 1020.5 |
| 20260501205001 | 64 | 266 | 6.0 | 7.0 | 0.00 | 0.00 | 0.00 | 32 | 1020.8 |
| 20260501204457 | 64 | 219 | 0.0 | 0.0 | 0.00 | 0.00 | 0.00 | 31 | 1020.7 |
| 20260501203953 | 63 | 354 | 3.0 | 3.0 | 0.00 | 0.00 | 0.00 | 32 | 1020.7 |
| 20260501203450 | 63 | 355 | 9.0 | 10.0 | 0.00 | 0.00 | 0.00 | 32 | 1020.8 |
| 20260501202948 | 64 | 347 | 3.0 | 5.0 | 0.00 | 0.00 | 0.00 | 32 | 1020.8 |
| 20260501202444 | 62 | 259 | 2.0 | 3.0 | 0.00 | 0.00 | 0.00 | 32 | 1020.7 |
| 20260501201941 | 63 | 285 | 4.0 | 5.0 | 0.00 | 0.00 | 0.00 | 31 | 1021.0 |
| 20260501201438 | 63 | 287 | 2.0 | 2.0 | 0.00 | 0.00 | 0.00 | 34 | 1020.8 |
| 20260501200935 | 63 | 237 | 0.0 | 0.0 | 0.00 | 0.00 | 0.00 | 31 | 1021.1 |
| 20260501200432 | 63 | 12 | 4.0 | 5.0 | 0.00 | 0.00 | 0.00 | 33 | 1021.2 |
| 20260501195929 | 63 | 341 | 6.0 | 7.0 | 0.00 | 0.00 | 0.00 | 32 | 1021.1 |
| 20260501195426 | 63 | 212 | 4.0 | 5.0 | 0.00 | 0.00 | 0.00 | 33 | 1021.0 |
| 20260501194921 | 62 | 223 | 3.0 | 3.0 | 0.00 | 0.00 | 0.00 | 33 | 1021.1 |
| 20260501194418 | 62 | 265 | 2.0 | 2.0 | 0.00 | 0.00 | 0.00 | 33 | 1021.1 |
| 20260501193914 | 62 | 212 | 0.0 | 1.0 | 0.00 | 0.00 | 0.00 | 35 | 1021.3 |
| 20260501193412 | 62 | 23 | 5.0 | 7.0 | 0.00 | 0.00 | 0.00 | 34 | 1021.3 |
| 20260501192910 | 62 | 251 | 4.0 | 6.0 | 0.00 | 0.00 | 0.00 | 35 | 1021.3 |
| 20260501192407 | 62 | 322 | 2.0 | 2.0 | 0.00 | 0.00 | 0.00 | 33 | 1021.2 |
| 20260501191904 | 61 | 274 | 2.0 | 2.0 | 0.00 | 0.00 | 0.00 | 36 | 1021.2 |
| 20260501191401 | 62 | 348 | 6.0 | 7.0 | 0.00 | 0.00 | 0.00 | 36 | 1021.1 |
| 20260501190858 | 62 | 256 | 3.0 | 3.0 | 0.00 | 0.00 | 0.00 | 34 | 1021.3 |
| 20260501190353 | 61 | 262 | 5.0 | 6.0 | 0.00 | 0.00 | 0.00 | 36 | 1021.4 |
| 20260501185848 | 60 | 251 | 3.0 | 3.0 | 0.00 | 0.00 | 0.00 | 32 | 1021.3 |
| 20260501185345 | 60 | 338 | 6.0 | 8.0 | 0.00 | 0.00 | 0.00 | 35 | 1021.5 |
| 20260501184841 | 60 | 347 | 4.0 | 6.0 | 0.00 | 0.00 | 0.00 | 35 | 1021.5 |
| 20260501184337 | 60 | 218 | 2.0 | 2.0 | 0.00 | 0.00 | 0.00 | 35 | 1021.6 |
| 20260501183832 | 60 | 283 | 3.0 | 5.0 | 0.00 | 0.00 | 0.00 | 36 | 1021.6 |
| 20260501183330 | 61 | 81 | 3.0 | 3.0 | 0.00 | 0.00 | 0.00 | 35 | 1021.6 |
| 20260501182826 | 60 | 263 | 2.0 | 2.0 | 0.00 | 0.00 | 0.00 | 33 | 1021.8 |
| 20260501182323 | 61 | 75 | 5.0 | 6.0 | 0.00 | 0.00 | 0.00 | 33 | 1021.9 |
| 20260501181820 | 59 | 271 | 0.0 | 1.0 | 0.00 | 0.00 | 0.00 | 36 | 1021.8 |
| 20260501181317 | 59 | 253 | 0.0 | 0.0 | 0.00 | 0.00 | 0.00 | 33 | 1021.8 |
| 20260501180814 | 59 | 357 | 1.0 | 1.0 | 0.00 | 0.00 | 0.00 | 34 | 1021.8 |
| 20260501180310 | 59 | 22 | 7.0 | 7.0 | 0.00 | 0.00 | 0.00 | 39 | 1021.8 |
| 20260501175808 | 59 | 316 | 4.0 | 6.0 | 0.00 | 0.00 | 0.00 | 38 | 1022.0 |
| 20260501175306 | 59 | 283 | 3.0 | 3.0 | 0.00 | 0.00 | 0.00 | 39 | 1021.8 |
| 20260501174801 | 58 | 252 | 1.0 | 1.0 | 0.00 | 0.00 | 0.00 | 39 | 1022.0 |
| 20260501174258 | 58 | 25 | 3.0 | 5.0 | 0.00 | 0.00 | 0.00 | 44 | 1022.1 |
| 20260501173756 | 57 | 258 | 3.0 | 3.0 | 0.00 | 0.00 | 0.00 | 42 | 1022.1 |
| 20260501173253 | 57 | 281 | 5.0 | 6.0 | 0.00 | 0.00 | 0.00 | 43 | 1022.2 |
| 20260501172749 | 57 | 323 | 5.0 | 6.0 | 0.00 | 0.00 | 0.00 | 45 | 1022.3 |
| 20260501172244 | 57 | 327 | 5.0 | 6.0 | 0.00 | 0.00 | 0.00 | 45 | 1022.2 |
| 20260501171740 | 57 | 249 | 4.0 | 5.0 | 0.00 | 0.00 | 0.00 | 44 | 1022.3 |